createdAt,value
2023-04-06T00:01:04.402Z,47.87
2023-04-06T00:03:31.586Z,48.59
2023-04-06T00:05:58.662Z,48.95
2023-04-06T00:08:27.639Z,49.35
2023-04-06T00:10:54.770Z,49.01
2023-04-06T00:13:22.041Z,48.92
2023-04-06T00:15:48.931Z,48.89
2023-04-06T00:18:16.109Z,49.69
2023-04-06T00:20:43.084Z,49.97
2023-04-06T00:23:10.037Z,49.64
2023-04-06T00:25:36.989Z,49.46
2023-04-06T00:28:04.825Z,48.70
2023-04-06T00:30:31.844Z,49.66
2023-04-06T00:32:58.931Z,50.27
2023-04-06T00:35:25.960Z,49.47
2023-04-06T00:37:52.972Z,50.27
2023-04-06T00:40:20.427Z,49.24
2023-04-06T00:42:47.424Z,49.36
2023-04-06T00:45:14.459Z,49.52
2023-04-06T00:47:41.732Z,49.59
2023-04-06T00:50:09.055Z,49.70
2023-04-06T00:52:36.853Z,50.28
2023-04-06T00:55:04.933Z,50.00
2023-04-06T00:57:32.756Z,49.42
2023-04-06T00:59:59.948Z,48.94
2023-04-06T01:02:27.376Z,49.12
2023-04-06T01:04:55.626Z,49.45
2023-04-06T01:07:22.815Z,49.54
2023-04-06T01:09:49.836Z,49.30
2023-04-06T01:12:16.985Z,49.17
2023-04-06T01:14:44.004Z,49.21
2023-04-06T01:17:11.236Z,49.93
2023-04-06T01:19:38.572Z,50.25
2023-04-06T01:22:05.731Z,51.90
2023-04-06T01:24:33.283Z,51.43
2023-04-06T01:27:00.285Z,51.68
2023-04-06T01:29:27.319Z,50.78
2023-04-06T01:31:54.327Z,51.14
2023-04-06T01:34:21.329Z,51.40
2023-04-06T01:36:48.266Z,52.65
2023-04-06T01:39:15.205Z,51.66
2023-04-06T01:41:42.214Z,52.80
2023-04-06T01:44:09.164Z,53.09
2023-04-06T01:46:36.069Z,52.02
2023-04-06T01:49:03.064Z,52.70
2023-04-06T01:51:29.951Z,51.90
2023-04-06T01:53:56.906Z,53.81
2023-04-06T01:56:23.857Z,53.61
2023-04-06T01:58:50.874Z,54.19
2023-04-06T02:01:17.890Z,53.85
2023-04-06T02:03:44.905Z,54.07
2023-04-06T02:06:12.206Z,54.54
2023-04-06T02:08:39.412Z,54.66
2023-04-06T02:11:06.532Z,53.96
2023-04-06T02:13:33.666Z,54.24
2023-04-06T02:16:00.928Z,54.13
2023-04-06T02:18:28.815Z,54.42
2023-04-06T02:20:55.936Z,54.30
2023-04-06T02:23:22.873Z,54.37
2023-04-06T02:25:49.837Z,54.22
2023-04-06T02:28:16.924Z,54.37
2023-04-06T02:30:43.878Z,53.91
2023-04-06T02:33:11.013Z,53.98
2023-04-06T02:35:38.116Z,54.84
2023-04-06T02:38:09.738Z,54.86
2023-04-06T02:40:36.715Z,54.48
2023-04-06T02:43:03.650Z,53.98
2023-04-06T02:45:30.633Z,54.73
2023-04-06T02:47:57.583Z,55.66
2023-04-06T02:50:24.633Z,55.32
2023-04-06T02:52:51.616Z,54.73
2023-04-06T02:55:19.908Z,54.93
2023-04-06T02:57:48.053Z,56.46
2023-04-06T03:00:15.233Z,56.09
2023-04-06T03:02:42.311Z,55.15
2023-04-06T03:05:09.432Z,54.95
2023-04-06T03:07:36.476Z,54.93
2023-04-06T03:10:03.641Z,54.77
2023-04-06T03:12:30.886Z,54.95
2023-04-06T03:14:57.878Z,55.26
2023-04-06T03:17:25.054Z,55.08
2023-04-06T03:19:54.165Z,54.55
2023-04-06T03:22:23.882Z,55.30
2023-04-06T03:25:01.622Z,56.13
2023-04-06T03:27:39.600Z,56.46
2023-04-06T03:30:07.520Z,56.70
2023-04-06T03:32:53.251Z,56.88
2023-04-06T03:35:21.356Z,57.36
2023-04-06T03:37:48.953Z,57.09
2023-04-06T03:40:16.576Z,55.84
2023-04-06T03:42:43.507Z,56.14
2023-04-06T03:45:10.964Z,55.91
2023-04-06T03:47:37.957Z,57.49
2023-04-06T03:50:05.300Z,60.31
2023-04-06T03:52:32.279Z,59.75
2023-04-06T03:55:00.878Z,58.98
2023-04-06T03:57:27.816Z,58.28
2023-04-06T03:59:54.702Z,57.38
2023-04-06T04:02:21.739Z,56.26
2023-04-06T04:04:48.729Z,57.07
2023-04-06T04:07:15.699Z,56.51
2023-04-06T04:09:42.604Z,55.61
2023-04-06T04:12:09.567Z,55.78
2023-04-06T04:14:36.542Z,55.91
2023-04-06T04:17:03.535Z,55.96
2023-04-06T04:19:30.616Z,55.43
2023-04-06T04:21:57.619Z,55.23
2023-04-06T04:24:24.664Z,57.25
2023-04-06T04:26:51.890Z,56.47
2023-04-06T04:29:22.363Z,57.63
2023-04-06T04:31:50.158Z,57.47
2023-04-06T04:34:17.357Z,57.30
2023-04-06T04:36:44.380Z,58.77
2023-04-06T04:39:11.350Z,57.71
2023-04-06T04:41:38.329Z,59.85
2023-04-06T04:44:05.497Z,58.66
2023-04-06T04:46:32.428Z,58.74
2023-04-06T04:48:59.337Z,60.05
2023-04-06T04:51:26.522Z,58.85
2023-04-06T04:53:53.490Z,58.64
2023-04-06T04:56:21.501Z,58.02
2023-04-06T04:58:48.500Z,57.43
2023-04-06T05:01:15.953Z,56.27
2023-04-06T05:03:43.229Z,55.47
2023-04-06T05:06:12.856Z,54.35
2023-04-06T05:08:40.752Z,53.05
2023-04-06T05:11:07.832Z,51.70
2023-04-06T05:13:34.792Z,50.41
2023-04-06T05:16:01.980Z,49.37
2023-04-06T05:18:29.244Z,48.84
2023-04-06T05:20:56.792Z,47.87
2023-04-06T05:23:23.785Z,46.91
2023-04-06T05:25:51.083Z,46.17
2023-04-06T05:28:18.514Z,44.63
2023-04-06T05:30:46.784Z,43.96
2023-04-06T05:33:14.107Z,43.19
2023-04-06T05:35:41.160Z,42.11
2023-04-06T05:38:10.091Z,41.09
2023-04-06T05:40:39.197Z,40.84
2023-04-06T05:43:06.519Z,40.65
2023-04-06T05:45:33.729Z,39.28
2023-04-06T05:48:00.794Z,38.71
2023-04-06T05:50:28.324Z,38.33
2023-04-06T05:52:55.401Z,38.73
2023-04-06T05:55:22.442Z,39.13
2023-04-06T05:57:59.536Z,38.77
2023-04-06T06:00:31.218Z,38.74
2023-04-06T06:02:58.495Z,38.18
2023-04-06T06:05:25.649Z,38.61
2023-04-06T06:07:53.483Z,38.28
2023-04-06T06:10:21.111Z,38.20
2023-04-06T06:12:48.141Z,38.24
2023-04-06T06:15:15.358Z,37.20
2023-04-06T06:17:42.482Z,36.90
2023-04-06T06:20:10.013Z,37.15
2023-04-06T06:22:37.234Z,36.97
2023-04-06T06:25:04.745Z,36.23
2023-04-06T06:27:32.077Z,35.74
2023-04-06T06:29:59.212Z,37.32
2023-04-06T06:32:26.616Z,36.59
2023-04-06T06:34:54.030Z,37.38
2023-04-06T06:37:21.414Z,36.15
2023-04-06T06:39:48.743Z,34.48
2023-04-06T06:42:15.758Z,36.11
2023-04-06T06:44:42.812Z,36.55
2023-04-06T06:47:10.513Z,35.73
2023-04-06T06:49:37.622Z,35.89
2023-04-06T06:52:06.845Z,36.08
2023-04-06T06:54:33.990Z,36.54
2023-04-06T06:57:01.761Z,35.26
2023-04-06T06:59:29.421Z,34.88
2023-04-06T07:01:56.761Z,34.92
2023-04-06T07:04:23.845Z,33.85
2023-04-06T07:06:51.845Z,35.35
2023-04-06T07:09:18.864Z,35.01
2023-04-06T07:11:46.300Z,36.21
2023-04-06T07:14:13.437Z,35.49
2023-04-06T07:16:40.529Z,35.85
2023-04-06T07:19:07.691Z,36.24
2023-04-06T07:21:34.840Z,35.05
2023-04-06T07:24:03.951Z,36.69
2023-04-06T07:26:33.010Z,35.83
2023-04-06T07:29:02.101Z,35.64
2023-04-06T07:31:29.397Z,37.97
2023-04-06T07:33:56.516Z,38.63
2023-04-06T07:36:25.722Z,37.39
2023-04-06T07:38:52.852Z,36.81
2023-04-06T07:41:19.966Z,35.71
2023-04-06T07:43:49.051Z,34.72
2023-04-06T07:46:16.245Z,34.95
2023-04-06T07:48:44.994Z,35.57
2023-04-06T07:51:17.023Z,35.89
2023-04-06T07:53:45.266Z,36.68
2023-04-06T07:56:13.378Z,37.05
2023-04-06T07:58:42.502Z,34.45
2023-04-06T08:01:09.634Z,33.15
2023-04-06T08:03:37.434Z,33.86
2023-04-06T08:06:04.904Z,35.28
2023-04-06T08:08:32.043Z,33.91
2023-04-06T08:11:00.758Z,35.32
2023-04-06T08:13:29.496Z,37.02
2023-04-06T08:15:59.150Z,35.58
2023-04-06T08:18:26.333Z,35.18
2023-04-06T08:20:53.295Z,36.84
2023-04-06T08:23:20.793Z,35.19
2023-04-06T08:25:47.885Z,35.10
2023-04-06T08:28:14.967Z,34.24
2023-04-06T08:30:43.744Z,34.92
2023-04-06T08:33:13.861Z,35.47
2023-04-06T08:35:41.274Z,35.36
2023-04-06T08:38:09.475Z,36.54
2023-04-06T08:40:42.666Z,35.99
2023-04-06T08:43:14.092Z,35.97
2023-04-06T08:45:46.865Z,37.57
2023-04-06T08:48:13.997Z,35.22
2023-04-06T08:50:43.941Z,36.67
2023-04-06T08:53:13.845Z,34.79
2023-04-06T08:55:41.663Z,36.13
2023-04-06T08:58:10.118Z,35.48
2023-04-06T09:00:42.449Z,36.82
2023-04-06T09:03:10.885Z,36.22
2023-04-06T09:05:38.144Z,35.79
2023-04-06T09:08:05.230Z,36.67
2023-04-06T09:10:33.597Z,37.66
2023-04-06T09:13:07.641Z,38.32
2023-04-06T09:15:35.260Z,34.64
2023-04-06T09:18:02.729Z,33.80
2023-04-06T09:20:31.861Z,33.57
2023-04-06T09:22:58.916Z,33.56
2023-04-06T09:25:29.751Z,32.63
2023-04-06T09:28:05.120Z,33.41
2023-04-06T09:30:32.173Z,32.18
2023-04-06T09:33:04.513Z,34.10
2023-04-06T09:35:32.613Z,31.97
2023-04-06T09:37:59.732Z,31.79
2023-04-06T09:40:27.034Z,32.46
2023-04-06T09:42:55.592Z,32.84
2023-04-06T09:45:26.717Z,32.33
2023-04-06T09:47:57.700Z,32.88
2023-04-06T09:50:27.379Z,31.46
2023-04-06T09:53:00.133Z,33.19
2023-04-06T09:55:43.535Z,31.32
2023-04-06T09:58:31.529Z,31.97
2023-04-06T10:01:11.890Z,31.60
2023-04-06T10:03:58.211Z,31.20
2023-04-06T10:06:29.945Z,29.98
2023-04-06T10:08:57.953Z,29.70
2023-04-06T10:11:25.142Z,31.39
2023-04-06T10:13:52.666Z,29.14
2023-04-06T10:16:19.852Z,29.86
2023-04-06T10:18:53.614Z,29.32
2023-04-06T10:21:24.844Z,29.99
2023-04-06T10:24:03.624Z,30.48
2023-04-06T10:26:30.639Z,30.93
2023-04-06T10:29:05.210Z,33.70
2023-04-06T10:31:32.912Z,29.78
2023-04-06T10:34:02.164Z,30.29
2023-04-06T10:36:34.842Z,30.24
2023-04-06T10:39:04.351Z,31.17
2023-04-06T10:41:46.344Z,30.70
2023-04-06T10:44:23.192Z,30.46
2023-04-06T10:47:05.217Z,30.94
2023-04-06T10:49:34.833Z,30.80
2023-04-06T10:52:02.068Z,30.52
2023-04-06T10:54:31.869Z,30.59
2023-04-06T10:56:58.864Z,29.70
2023-04-06T10:59:28.915Z,30.14
2023-04-06T11:01:58.198Z,29.90
2023-04-06T11:04:26.847Z,30.98
2023-04-06T11:06:55.249Z,30.44
2023-04-06T11:09:30.721Z,29.71
2023-04-06T11:11:58.215Z,29.70
2023-04-06T11:14:25.849Z,30.22
2023-04-06T11:16:53.374Z,30.07
2023-04-06T11:19:20.719Z,30.97
2023-04-06T11:21:49.651Z,32.12
2023-04-06T11:24:25.921Z,33.43
2023-04-06T11:26:58.443Z,32.68
2023-04-06T11:29:31.993Z,33.20
2023-04-06T11:32:09.345Z,31.39
2023-04-06T11:34:42.185Z,31.05
2023-04-06T11:37:11.457Z,31.43
2023-04-06T11:39:58.261Z,31.84
2023-04-06T11:42:27.350Z,30.50
2023-04-06T11:44:58.912Z,31.15
2023-04-06T11:47:34.856Z,29.99
2023-04-06T11:50:15.609Z,29.19
2023-04-06T11:52:43.816Z,29.69
2023-04-06T11:55:24.843Z,29.52
2023-04-06T11:57:52.942Z,30.21
2023-04-06T12:00:22.052Z,29.46
2023-04-06T12:02:52.317Z,30.81
2023-04-06T12:05:19.549Z,29.29
2023-04-06T12:07:47.279Z,29.08
2023-04-06T12:10:16.491Z,30.07
2023-04-06T12:12:43.665Z,30.03
2023-04-06T12:15:11.316Z,30.16
2023-04-06T12:17:38.520Z,29.89
2023-04-06T12:20:13.890Z,29.56
2023-04-06T12:22:52.025Z,32.03
2023-04-06T12:25:19.126Z,31.14
2023-04-06T12:27:46.491Z,29.58
2023-04-06T12:30:14.035Z,29.73
2023-04-06T12:32:41.508Z,30.44
2023-04-06T12:35:10.232Z,30.36
2023-04-06T12:37:38.093Z,30.92
2023-04-06T12:40:05.665Z,29.27
2023-04-06T12:42:32.708Z,30.14
2023-04-06T12:44:59.840Z,30.18
2023-04-06T12:47:29.154Z,29.56
2023-04-06T12:49:56.664Z,29.66
2023-04-06T12:52:23.747Z,30.06
2023-04-06T12:54:51.501Z,30.51
2023-04-06T12:57:18.875Z,31.66
2023-04-06T12:59:46.129Z,29.62
2023-04-06T13:02:26.037Z,29.66
2023-04-06T13:04:54.902Z,29.70
2023-04-06T13:07:24.086Z,29.72
2023-04-06T13:09:52.324Z,30.45
2023-04-06T13:12:19.922Z,30.35
2023-04-06T13:14:52.161Z,31.88
2023-04-06T13:17:19.187Z,31.40
2023-04-06T13:19:50.558Z,31.67
2023-04-06T13:22:18.545Z,31.94
2023-04-06T13:24:46.896Z,31.76
2023-04-06T13:27:14.054Z,32.10
2023-04-06T13:29:41.399Z,32.21
2023-04-06T13:32:11.160Z,33.97
2023-04-06T13:34:40.166Z,34.65
2023-04-06T13:37:07.602Z,32.25
2023-04-06T13:39:34.689Z,32.27
2023-04-06T13:42:03.927Z,30.86
2023-04-06T13:44:31.246Z,31.12
2023-04-06T13:46:59.430Z,31.72
2023-04-06T13:49:26.397Z,31.73
2023-04-06T13:51:53.437Z,31.17
2023-04-06T13:54:21.350Z,31.29
2023-04-06T13:56:48.438Z,30.92
2023-04-06T13:59:15.989Z,33.12
2023-04-06T14:01:43.451Z,31.06
2023-04-06T14:04:10.691Z,30.92
2023-04-06T14:06:40.092Z,30.96
2023-04-06T14:09:12.902Z,31.00
2023-04-06T14:11:48.082Z,31.07
2023-04-06T14:14:28.529Z,32.06
2023-04-06T14:16:56.123Z,30.68
2023-04-06T14:19:23.457Z,31.04
2023-04-06T14:21:50.881Z,30.98
2023-04-06T14:24:20.323Z,29.30
2023-04-06T14:26:47.831Z,29.19
2023-04-06T14:29:15.061Z,29.50
2023-04-06T14:31:42.482Z,32.24
2023-04-06T14:34:09.526Z,29.17
2023-04-06T14:36:38.557Z,29.34
2023-04-06T14:39:07.162Z,30.57
2023-04-06T14:41:35.125Z,30.07
2023-04-06T14:44:02.399Z,29.58
2023-04-06T14:46:29.584Z,30.11
2023-04-06T14:48:57.896Z,30.82
2023-04-06T14:51:31.051Z,31.14
2023-04-06T14:54:00.427Z,31.83
2023-04-06T14:56:27.606Z,31.78
2023-04-06T14:58:55.017Z,32.08
2023-04-06T15:01:22.328Z,31.11
2023-04-06T15:03:50.185Z,31.77
2023-04-06T15:06:19.056Z,31.36
2023-04-06T15:08:46.664Z,31.23
2023-04-06T15:11:14.479Z,31.64
2023-04-06T15:13:42.800Z,31.54
2023-04-06T15:16:10.130Z,31.55
2023-04-06T15:18:37.422Z,31.57
2023-04-06T15:21:04.558Z,31.81
2023-04-06T15:23:31.849Z,31.76
2023-04-06T15:25:59.282Z,32.07
2023-04-06T15:28:26.784Z,31.87
2023-04-06T15:30:55.337Z,31.90
2023-04-06T15:33:25.683Z,31.57
2023-04-06T15:35:52.837Z,31.56
2023-04-06T15:38:19.964Z,30.92
2023-04-06T15:40:49.043Z,31.12
2023-04-06T15:43:17.078Z,30.99
2023-04-06T15:45:44.354Z,31.53
2023-04-06T15:48:11.457Z,31.68
2023-04-06T15:50:38.586Z,31.86
2023-04-06T15:53:05.692Z,31.58
2023-04-06T15:55:32.911Z,31.63
2023-04-06T15:57:59.963Z,31.33
2023-04-06T16:00:28.953Z,31.44
2023-04-06T16:02:57.427Z,31.64
2023-04-06T16:05:25.268Z,31.53
2023-04-06T16:07:54.232Z,31.75
2023-04-06T16:10:21.423Z,32.55
2023-04-06T16:12:48.539Z,31.90
2023-04-06T16:15:18.233Z,31.90
2023-04-06T16:17:45.392Z,31.81
2023-04-06T16:20:13.291Z,31.41
2023-04-06T16:22:42.647Z,31.27
2023-04-06T16:25:10.866Z,31.82
2023-04-06T16:27:38.226Z,31.45
2023-04-06T16:30:06.045Z,32.07
2023-04-06T16:32:33.278Z,32.04
2023-04-06T16:35:00.523Z,31.53
2023-04-06T16:37:30.023Z,31.66
2023-04-06T16:39:57.637Z,31.72
2023-04-06T16:42:24.728Z,32.03
2023-04-06T16:44:51.869Z,31.91
2023-04-06T16:47:18.980Z,31.77
2023-04-06T16:49:46.840Z,32.22
2023-04-06T16:52:14.025Z,32.59
2023-04-06T16:54:43.435Z,32.01
2023-04-06T16:57:13.048Z,32.29
2023-04-06T16:59:41.388Z,32.49
2023-04-06T17:02:08.593Z,33.15
2023-04-06T17:04:37.984Z,33.09
2023-04-06T17:07:05.128Z,33.61
2023-04-06T17:12:07.695Z,33.21
2023-04-06T17:14:35.127Z,33.78
2023-04-06T17:17:03.897Z,33.99
2023-04-06T17:19:31.129Z,33.75
2023-04-06T17:21:58.241Z,33.74
2023-04-06T17:24:25.674Z,33.71
2023-04-06T17:26:52.825Z,33.29
2023-04-06T17:29:19.924Z,33.27
2023-04-06T17:31:47.059Z,33.79
2023-04-06T17:34:14.294Z,34.13
2023-04-06T17:36:41.415Z,33.68
2023-04-06T17:39:08.984Z,33.12
2023-04-06T17:41:36.484Z,33.26
2023-04-06T17:44:03.921Z,33.28
2023-04-06T17:46:31.160Z,33.02
2023-04-06T17:48:58.394Z,32.58
2023-04-06T17:51:26.750Z,32.76
2023-04-06T17:53:53.943Z,33.03
2023-04-06T17:56:22.047Z,33.62
2023-04-06T18:01:22.485Z,33.97
2023-04-06T18:03:50.120Z,34.59
2023-04-06T18:06:18.411Z,34.48
2023-04-06T18:08:45.823Z,35.08
2023-04-06T18:11:18.558Z,35.39
2023-04-06T18:13:46.392Z,36.65
2023-04-06T18:16:16.881Z,36.18
2023-04-06T18:18:43.894Z,36.91
2023-04-06T18:21:11.286Z,36.96
2023-04-06T18:23:38.650Z,37.94
2023-04-06T18:26:07.032Z,37.90
2023-04-06T18:28:34.459Z,38.11
2023-04-06T18:31:02.661Z,37.82
2023-04-06T18:33:30.207Z,38.50
2023-04-06T18:35:57.316Z,37.08
2023-04-06T18:38:24.526Z,36.81
2023-04-06T18:40:52.125Z,36.64
2023-04-06T18:43:19.148Z,37.60
2023-04-06T18:45:46.282Z,37.05
2023-04-06T18:48:14.016Z,37.07
2023-04-06T18:50:41.398Z,36.91
2023-04-06T18:53:08.449Z,37.56
2023-04-06T18:55:37.293Z,38.23
2023-04-06T18:58:04.402Z,38.60
2023-04-06T19:00:31.657Z,38.68
2023-04-06T19:02:58.967Z,39.42
2023-04-06T19:05:26.347Z,38.82
2023-04-06T19:07:53.571Z,40.02
2023-04-06T19:10:20.727Z,40.36
2023-04-06T19:12:49.067Z,39.27
2023-04-06T19:15:16.546Z,39.17
2023-04-06T19:17:43.906Z,39.23
2023-04-06T19:20:11.433Z,39.04
2023-04-06T19:22:41.964Z,38.77
2023-04-06T19:25:09.453Z,37.85
2023-04-06T19:27:36.885Z,37.67
2023-04-06T19:30:05.559Z,38.29
2023-04-06T19:32:34.271Z,37.56
2023-04-06T19:35:03.087Z,37.38
2023-04-06T19:37:30.142Z,38.14
2023-04-06T19:39:57.233Z,37.36
2023-04-06T19:42:25.514Z,37.08
2023-04-06T19:44:53.467Z,37.39
2023-04-06T19:47:20.707Z,37.07
2023-04-06T19:49:47.903Z,37.13
2023-04-06T19:52:15.753Z,36.70
2023-04-06T19:54:43.100Z,36.84
2023-04-06T19:57:10.198Z,37.93
2023-04-06T19:59:37.263Z,36.90
2023-04-06T20:02:04.560Z,36.50
2023-04-06T20:04:31.805Z,37.21
2023-04-06T20:06:59.054Z,36.41
2023-04-06T20:09:26.301Z,36.95
2023-04-06T20:11:54.639Z,36.30
2023-04-06T20:14:23.129Z,36.31
2023-04-06T20:16:51.109Z,37.40
2023-04-06T20:19:18.386Z,36.70
2023-04-06T20:21:45.659Z,36.47
2023-04-06T20:24:12.783Z,37.10
2023-04-06T20:26:40.313Z,36.42
2023-04-06T20:29:07.567Z,37.44
2023-04-06T20:31:34.727Z,38.64
2023-04-06T20:34:02.378Z,37.40
2023-04-06T20:36:32.161Z,40.20
2023-04-06T20:38:59.343Z,41.97
2023-04-06T20:41:26.496Z,40.65
2023-04-06T20:43:53.536Z,39.37
2023-04-06T20:46:21.098Z,39.98
2023-04-06T20:48:48.158Z,39.14
2023-04-06T20:51:23.421Z,39.03
2023-04-06T20:53:50.657Z,38.50
2023-04-06T20:56:17.824Z,38.63
2023-04-06T20:58:44.936Z,38.54
2023-04-06T21:01:13.436Z,38.75
2023-04-06T21:03:41.404Z,39.00
2023-04-06T21:06:09.115Z,39.23
2023-04-06T21:08:36.716Z,39.90
2023-04-06T21:11:04.298Z,39.70
2023-04-06T21:13:31.346Z,39.28
2023-04-06T21:15:58.553Z,39.47
2023-04-06T21:18:26.212Z,39.04
2023-04-06T21:20:53.552Z,38.93
2023-04-06T21:23:21.951Z,39.15
2023-04-06T21:25:52.242Z,39.12
2023-04-06T21:28:19.378Z,39.59
2023-04-06T21:30:46.590Z,39.65
2023-04-06T21:33:13.809Z,39.22
2023-04-06T21:35:41.433Z,40.02
2023-04-06T21:38:09.215Z,39.25
2023-04-06T21:40:36.356Z,39.88
2023-04-06T21:43:03.650Z,40.08
2023-04-06T21:45:31.473Z,39.73
2023-04-06T21:47:59.113Z,39.23
2023-04-06T21:50:26.300Z,39.67
2023-04-06T21:52:53.392Z,39.98
2023-04-06T21:55:20.591Z,39.89
2023-04-06T21:57:47.824Z,40.26
2023-04-06T22:00:15.434Z,39.80
2023-04-06T22:02:43.049Z,40.49
2023-04-06T22:05:10.709Z,40.27
2023-04-06T22:07:37.798Z,40.57
2023-04-06T22:10:05.725Z,41.29
2023-04-06T22:12:32.779Z,42.30
2023-04-06T22:15:00.132Z,42.21
2023-04-06T22:17:27.879Z,43.75
2023-04-06T22:19:54.923Z,44.83
2023-04-06T22:22:22.087Z,45.04
2023-04-06T22:24:49.130Z,43.21
2023-04-06T22:27:16.337Z,43.36
2023-04-06T22:29:43.341Z,43.66
2023-04-06T22:32:10.440Z,44.45
2023-04-06T22:34:37.564Z,45.45
2023-04-06T22:37:04.612Z,45.07
2023-04-06T22:39:31.835Z,45.78
2023-04-06T22:41:59.053Z,45.96
2023-04-06T22:44:26.170Z,47.21
2023-04-06T22:46:53.573Z,46.06
2023-04-06T22:49:21.255Z,46.10
2023-04-06T22:51:48.282Z,45.78
2023-04-06T22:54:15.304Z,45.47
2023-04-06T22:56:42.434Z,45.62
2023-04-06T22:59:09.622Z,46.25
2023-04-06T23:01:36.783Z,46.33
2023-04-06T23:04:04.196Z,46.69
2023-04-06T23:06:31.620Z,46.52
2023-04-06T23:08:58.633Z,46.60
2023-04-06T23:11:25.823Z,46.66
2023-04-06T23:13:52.806Z,47.15
2023-04-06T23:16:19.921Z,47.86
2023-04-06T23:18:46.976Z,47.22
2023-04-06T23:21:13.962Z,47.97
2023-04-06T23:23:41.154Z,48.05
2023-04-06T23:26:08.264Z,47.81
2023-04-06T23:28:35.366Z,47.13
2023-04-06T23:31:02.437Z,48.67
2023-04-06T23:33:29.616Z,47.71
2023-04-06T23:35:56.972Z,47.80
2023-04-06T23:38:24.107Z,48.05
2023-04-06T23:40:51.592Z,48.74
2023-04-06T23:43:19.247Z,48.83
2023-04-06T23:45:46.617Z,49.24
2023-04-06T23:48:20.937Z,49.20
2023-04-06T23:50:47.972Z,49.13
2023-04-06T23:53:15.063Z,48.57
2023-04-06T23:55:42.087Z,48.42
2023-04-06T23:58:09.012Z,48.93
